createdAt,value
2023-05-14T00:01:17.551Z,16.76
2023-05-14T00:03:45.605Z,16.80
2023-05-14T00:06:13.828Z,16.80
2023-05-14T00:08:41.406Z,16.89
2023-05-14T00:11:09.924Z,16.85
2023-05-14T00:13:37.659Z,16.78
2023-05-14T00:16:05.688Z,16.66
2023-05-14T00:18:33.504Z,16.67
2023-05-14T00:21:00.802Z,16.66
2023-05-14T00:23:28.560Z,16.70
2023-05-14T00:25:56.705Z,16.64
2023-05-14T00:28:24.399Z,16.59
2023-05-14T00:30:52.256Z,16.52
2023-05-14T00:33:19.767Z,16.43
2023-05-14T00:35:47.591Z,16.44
2023-05-14T00:38:23.432Z,16.30
2023-05-14T00:40:51.858Z,16.19
2023-05-14T00:43:23.105Z,16.13
2023-05-14T00:45:54.764Z,16.06
2023-05-14T00:48:23.582Z,15.91
2023-05-14T00:50:51.799Z,15.73
2023-05-14T00:53:21.000Z,15.66
2023-05-14T00:55:50.384Z,15.39
2023-05-14T00:58:19.457Z,15.02
2023-05-14T01:00:46.844Z,15.06
2023-05-14T01:03:14.591Z,15.14
2023-05-14T01:06:01.588Z,14.89
2023-05-14T01:09:25.673Z,14.50
2023-05-14T01:12:04.040Z,14.33
2023-05-14T01:14:46.309Z,14.42
2023-05-14T01:17:20.090Z,14.39
2023-05-14T01:19:49.359Z,14.28
2023-05-14T01:22:17.085Z,14.30
2023-05-14T01:24:44.765Z,14.33
2023-05-14T01:27:56.182Z,14.44
2023-05-14T01:30:41.487Z,14.46
2023-05-14T01:33:18.098Z,14.28
2023-05-14T01:35:46.580Z,14.53
2023-05-14T01:38:24.576Z,14.85
2023-05-14T01:40:54.436Z,14.81
2023-05-14T01:43:23.026Z,14.44
2023-05-14T01:45:50.505Z,14.40
2023-05-14T01:48:19.041Z,14.96
2023-05-14T01:50:46.230Z,14.81
2023-05-14T01:53:14.817Z,14.81
2023-05-14T01:55:42.143Z,14.69
2023-05-14T01:58:10.544Z,14.18
2023-05-14T02:00:38.361Z,14.38
2023-05-14T02:03:06.543Z,14.56
2023-05-14T02:05:34.483Z,14.51
2023-05-14T02:08:01.670Z,14.48
2023-05-14T02:10:29.179Z,14.32
2023-05-14T02:12:56.708Z,14.30
2023-05-14T02:15:24.347Z,14.40
2023-05-14T02:17:51.690Z,14.53
2023-05-14T02:20:19.127Z,14.78
2023-05-14T02:22:47.369Z,14.85
2023-05-14T02:25:15.592Z,14.56
2023-05-14T02:27:43.069Z,14.48
2023-05-14T02:30:11.936Z,14.50
2023-05-14T02:32:40.242Z,14.68
2023-05-14T02:35:08.609Z,15.05
2023-05-14T02:37:35.985Z,14.82
2023-05-14T02:40:04.537Z,14.69
2023-05-14T02:42:32.978Z,14.63
2023-05-14T02:45:00.539Z,14.47
2023-05-14T02:47:27.878Z,14.56
2023-05-14T02:49:55.428Z,14.73
2023-05-14T02:52:22.708Z,14.88
2023-05-14T02:54:50.331Z,14.81
2023-05-14T02:57:17.644Z,14.91
2023-05-14T02:59:44.835Z,15.01
2023-05-14T03:02:14.572Z,15.09
2023-05-14T03:04:42.632Z,15.12
2023-05-14T03:07:10.624Z,15.09
2023-05-14T03:09:38.427Z,15.37
2023-05-14T03:12:08.389Z,15.31
2023-05-14T03:14:35.933Z,15.37
2023-05-14T03:17:04.130Z,15.39
2023-05-14T03:19:31.513Z,15.32
2023-05-14T03:21:59.268Z,15.43
2023-05-14T03:24:27.149Z,15.54
2023-05-14T03:26:54.974Z,15.49
2023-05-14T03:29:23.050Z,15.54
2023-05-14T03:31:50.664Z,15.51
2023-05-14T03:34:18.107Z,16.07
2023-05-14T03:36:45.490Z,15.65
2023-05-14T03:39:15.613Z,15.68
2023-05-14T03:41:43.050Z,15.78
2023-05-14T03:44:10.557Z,15.79
2023-05-14T03:46:38.130Z,15.81
2023-05-14T03:49:08.423Z,15.61
2023-05-14T03:51:35.928Z,15.76
2023-05-14T03:54:05.665Z,15.79
2023-05-14T03:56:34.033Z,15.79
2023-05-14T03:59:01.440Z,15.76
2023-05-14T04:01:28.818Z,15.79
2023-05-14T04:03:58.928Z,15.92
2023-05-14T04:06:27.536Z,15.87
2023-05-14T04:08:55.542Z,15.85
2023-05-14T04:11:23.138Z,15.98
2023-05-14T04:13:50.504Z,15.96
2023-05-14T04:16:17.818Z,15.74
2023-05-14T04:18:45.198Z,15.79
2023-05-14T04:21:12.540Z,15.80
2023-05-14T04:23:40.409Z,15.84
2023-05-14T04:26:07.976Z,15.75
2023-05-14T04:28:35.635Z,15.65
2023-05-14T04:31:03.838Z,15.73
2023-05-14T04:33:31.296Z,15.81
2023-05-14T04:35:58.644Z,15.87
2023-05-14T04:38:29.454Z,15.90
2023-05-14T04:40:56.993Z,15.86
2023-05-14T04:43:24.485Z,15.96
2023-05-14T04:45:52.493Z,16.02
2023-05-14T04:48:20.015Z,16.12
2023-05-14T04:50:47.268Z,16.17
2023-05-14T04:53:15.505Z,15.98
2023-05-14T04:55:42.716Z,16.00
2023-05-14T04:58:09.934Z,15.79
2023-05-14T05:00:37.489Z,15.86
2023-05-14T05:03:04.886Z,16.05
2023-05-14T05:05:32.099Z,15.98
2023-05-14T05:07:59.261Z,16.09
2023-05-14T05:10:26.926Z,16.22
2023-05-14T05:12:54.132Z,16.23
2023-05-14T05:15:21.650Z,16.15
2023-05-14T05:17:49.665Z,16.13
2023-05-14T05:20:17.221Z,16.07
2023-05-14T05:22:44.627Z,16.22
2023-05-14T05:25:12.916Z,16.05
2023-05-14T05:27:40.908Z,16.48
2023-05-14T05:30:09.446Z,16.62
2023-05-14T05:32:37.344Z,16.73
2023-05-14T05:35:05.193Z,16.60
2023-05-14T05:37:32.568Z,16.58
2023-05-14T05:39:59.960Z,16.81
2023-05-14T05:42:27.467Z,16.58
2023-05-14T05:44:54.968Z,16.53
2023-05-14T05:47:22.502Z,16.58
2023-05-14T05:49:49.999Z,16.40
2023-05-14T05:52:17.356Z,16.59
2023-05-14T05:54:45.729Z,16.81
2023-05-14T05:57:14.239Z,16.81
2023-05-14T05:59:41.500Z,16.96
2023-05-14T06:02:14.430Z,16.83
2023-05-14T06:04:42.269Z,16.77
2023-05-14T06:07:09.652Z,16.81
2023-05-14T06:09:36.941Z,16.80
2023-05-14T06:12:04.947Z,16.92
2023-05-14T06:14:32.158Z,17.03
2023-05-14T06:16:59.568Z,16.98
2023-05-14T06:19:26.891Z,17.18
2023-05-14T06:21:54.050Z,17.21
2023-05-14T06:24:21.217Z,17.41
2023-05-14T06:26:49.309Z,17.39
2023-05-14T06:29:17.349Z,17.26
2023-05-14T06:31:45.623Z,17.38
2023-05-14T06:34:12.989Z,17.77
2023-05-14T06:36:40.257Z,17.82
2023-05-14T06:39:08.428Z,18.40
2023-05-14T06:41:35.912Z,18.29
2023-05-14T06:44:03.684Z,18.56
2023-05-14T06:46:30.924Z,19.04
2023-05-14T06:48:59.592Z,19.15
2023-05-14T06:51:30.663Z,19.05
2023-05-14T06:53:58.059Z,19.11
2023-05-14T06:56:25.406Z,19.37
2023-05-14T06:58:52.621Z,19.36
2023-05-14T07:01:19.911Z,19.64
2023-05-14T07:03:48.363Z,19.75
2023-05-14T07:06:16.104Z,19.98
2023-05-14T07:08:47.374Z,20.29
2023-05-14T07:11:16.006Z,20.41
2023-05-14T07:13:43.555Z,20.60
2023-05-14T07:16:10.714Z,20.64
2023-05-14T07:18:38.243Z,20.76
2023-05-14T07:21:06.555Z,20.89
2023-05-14T07:23:38.421Z,20.61
2023-05-14T07:26:08.154Z,20.65
2023-05-14T07:28:35.823Z,20.73
2023-05-14T07:31:08.823Z,20.67
2023-05-14T07:33:36.969Z,21.27
2023-05-14T07:36:05.352Z,21.36
2023-05-14T07:38:33.129Z,21.55
2023-05-14T07:41:00.610Z,21.85
2023-05-14T07:43:27.900Z,21.67
2023-05-14T07:45:55.977Z,21.94
2023-05-14T07:48:23.950Z,22.34
2023-05-14T07:50:51.938Z,22.46
2023-05-14T07:53:19.278Z,22.78
2023-05-14T07:55:48.381Z,22.77
2023-05-14T07:58:16.375Z,22.67
2023-05-14T08:00:43.666Z,22.41
2023-05-14T08:03:11.392Z,22.33
2023-05-14T08:05:38.681Z,22.44
2023-05-14T08:08:06.729Z,23.15
2023-05-14T08:10:34.639Z,23.88
2023-05-14T08:13:02.023Z,25.01
2023-05-14T08:15:29.599Z,25.99
2023-05-14T08:17:58.857Z,26.89
2023-05-14T08:20:27.084Z,27.26
2023-05-14T08:22:55.716Z,27.83
2023-05-14T08:25:28.516Z,28.42
2023-05-14T08:27:56.082Z,29.38
2023-05-14T08:30:24.072Z,29.84
2023-05-14T08:32:52.845Z,30.18
2023-05-14T08:35:20.542Z,30.65
2023-05-14T08:37:49.690Z,30.63
2023-05-14T08:40:18.853Z,30.99
2023-05-14T08:42:48.495Z,29.59
2023-05-14T08:45:25.753Z,28.23
2023-05-14T08:47:53.865Z,27.59
2023-05-14T08:50:23.337Z,26.32
2023-05-14T08:52:52.101Z,25.47
2023-05-14T08:55:20.328Z,24.68
2023-05-14T08:57:47.551Z,23.93
2023-05-14T09:00:20.595Z,23.27
2023-05-14T09:02:49.365Z,23.32
2023-05-14T09:05:19.335Z,23.68
2023-05-14T09:07:47.214Z,23.58
2023-05-14T09:10:18.734Z,23.78
2023-05-14T09:14:27.405Z,24.69
2023-05-14T09:16:55.563Z,25.21
2023-05-14T09:19:23.276Z,26.06
2023-05-14T09:21:51.582Z,26.19
2023-05-14T09:24:30.978Z,25.73
2023-05-14T09:26:58.969Z,25.42
2023-05-14T09:29:31.214Z,25.88
2023-05-14T09:32:04.978Z,25.68
2023-05-14T09:34:37.323Z,25.62
2023-05-14T09:37:09.532Z,25.84
2023-05-14T09:39:38.658Z,26.05
2023-05-14T09:42:06.458Z,26.11
2023-05-14T09:44:33.797Z,26.18
2023-05-14T09:47:01.142Z,26.06
2023-05-14T09:49:28.424Z,26.17
2023-05-14T09:51:57.933Z,25.65
2023-05-14T09:54:27.657Z,25.14
2023-05-14T09:56:55.908Z,25.48
2023-05-14T09:59:23.393Z,26.13
2023-05-14T10:01:52.695Z,26.65
2023-05-14T10:04:22.406Z,27.57
2023-05-14T10:06:53.408Z,27.85
2023-05-14T10:09:26.472Z,27.59
2023-05-14T10:12:01.499Z,28.01
2023-05-14T10:14:46.994Z,27.61
2023-05-14T10:17:18.709Z,26.61
2023-05-14T10:19:59.066Z,25.09
2023-05-14T10:22:34.998Z,24.37
2023-05-14T10:25:05.065Z,25.11
2023-05-14T10:27:33.774Z,24.72
2023-05-14T10:30:06.264Z,24.88
2023-05-14T10:32:37.829Z,25.03
2023-05-14T10:35:22.975Z,27.39
2023-05-14T10:37:52.183Z,29.12
2023-05-14T10:40:24.545Z,29.53
2023-05-14T10:42:53.457Z,29.93
2023-05-14T10:45:23.240Z,29.83
2023-05-14T10:47:50.761Z,30.02
2023-05-14T10:50:18.735Z,28.91
2023-05-14T10:52:46.924Z,29.76
2023-05-14T10:55:17.288Z,30.82
2023-05-14T10:57:46.884Z,31.36
2023-05-14T11:00:20.941Z,31.66
2023-05-14T11:02:48.689Z,31.03
2023-05-14T11:05:17.921Z,28.74
2023-05-14T11:07:50.321Z,26.52
2023-05-14T11:10:26.077Z,27.25
2023-05-14T11:12:57.324Z,27.40
2023-05-14T11:15:27.952Z,27.10
2023-05-14T11:17:55.634Z,30.28
2023-05-14T11:20:23.287Z,33.92
2023-05-14T11:22:55.426Z,36.50
2023-05-14T11:25:29.053Z,37.21
2023-05-14T11:27:58.943Z,36.12
2023-05-14T11:30:26.778Z,31.29
2023-05-14T11:32:56.123Z,29.36
2023-05-14T11:35:24.085Z,29.36
2023-05-14T11:37:52.893Z,28.82
2023-05-14T11:40:20.995Z,29.47
2023-05-14T11:42:53.429Z,31.18
2023-05-14T11:45:29.927Z,30.92
2023-05-14T11:47:57.699Z,31.50
2023-05-14T11:50:25.753Z,31.45
2023-05-14T11:52:57.696Z,33.76
2023-05-14T11:55:25.366Z,32.44
2023-05-14T11:57:52.863Z,30.71
2023-05-14T12:00:22.231Z,32.86
2023-05-14T12:02:50.491Z,35.84
2023-05-14T12:05:18.919Z,37.80
2023-05-14T12:07:48.045Z,39.33
2023-05-14T12:10:17.671Z,35.60
2023-05-14T12:12:49.008Z,32.50
2023-05-14T12:15:17.364Z,31.99
2023-05-14T12:19:06.684Z,28.65
2023-05-14T12:22:50.171Z,28.92
2023-05-14T12:26:32.726Z,26.94
2023-05-14T12:30:21.900Z,27.27
2023-05-14T12:34:05.168Z,27.64
2023-05-14T12:37:48.054Z,28.43
2023-05-14T12:41:31.591Z,26.63
2023-05-14T12:44:00.530Z,26.16
2023-05-14T12:47:43.651Z,25.26
2023-05-14T12:51:26.363Z,25.16
2023-05-14T12:53:54.252Z,24.20
2023-05-14T12:57:36.593Z,25.56
2023-05-14T13:00:08.214Z,26.49
2023-05-14T13:02:43.185Z,28.43
2023-05-14T13:05:12.698Z,30.58
2023-05-14T13:08:56.775Z,30.73
2023-05-14T13:12:39.503Z,28.89
2023-05-14T13:15:07.955Z,27.10
2023-05-14T13:17:36.365Z,26.98
2023-05-14T13:20:04.819Z,26.44
2023-05-14T13:22:32.025Z,25.26
2023-05-14T13:24:59.230Z,24.30
2023-05-14T13:27:26.536Z,24.25
2023-05-14T13:29:54.015Z,23.97
2023-05-14T13:32:21.647Z,23.35
2023-05-14T13:34:49.138Z,23.54
2023-05-14T13:37:16.716Z,24.87
2023-05-14T13:39:45.060Z,26.33
2023-05-14T13:42:12.834Z,26.81
2023-05-14T13:44:40.385Z,27.05
2023-05-14T13:47:07.847Z,27.73
2023-05-14T13:49:35.521Z,28.30
2023-05-14T13:52:03.760Z,27.81
2023-05-14T13:54:31.346Z,27.08
2023-05-14T13:56:58.539Z,26.68
2023-05-14T13:59:25.827Z,26.34
2023-05-14T14:01:53.263Z,25.61
2023-05-14T14:04:21.079Z,26.33
2023-05-14T14:06:49.248Z,26.91
2023-05-14T14:09:17.106Z,26.92
2023-05-14T14:11:45.106Z,27.51
2023-05-14T14:14:13.246Z,27.40
2023-05-14T14:16:40.829Z,27.18
2023-05-14T14:19:10.821Z,26.95
2023-05-14T14:21:45.412Z,26.92
2023-05-14T14:24:14.787Z,26.81
2023-05-14T14:26:42.452Z,26.64
2023-05-14T14:29:10.655Z,25.70
2023-05-14T14:31:38.421Z,25.42
2023-05-14T14:34:06.188Z,24.94
2023-05-14T14:36:33.608Z,24.97
2023-05-14T14:39:05.896Z,23.91
2023-05-14T14:41:33.461Z,23.68
2023-05-14T14:44:02.745Z,24.17
2023-05-14T14:46:30.049Z,24.20
2023-05-14T14:48:58.002Z,23.67
2023-05-14T14:51:25.635Z,23.26
2023-05-14T14:53:52.953Z,22.20
2023-05-14T14:56:20.186Z,22.80
2023-05-14T14:58:47.658Z,22.14
2023-05-14T15:01:15.099Z,22.53
2023-05-14T15:03:43.339Z,22.44
2023-05-14T15:06:12.461Z,23.09
2023-05-14T15:08:40.406Z,22.84
2023-05-14T15:11:09.183Z,23.18
2023-05-14T15:13:36.843Z,23.05
2023-05-14T15:16:04.144Z,23.30
2023-05-14T15:18:31.370Z,23.38
2023-05-14T15:20:58.949Z,23.67
2023-05-14T15:23:26.551Z,23.64
2023-05-14T15:25:54.058Z,23.96
2023-05-14T15:28:21.981Z,23.71
2023-05-14T15:30:49.891Z,23.94
2023-05-14T15:33:19.266Z,23.02
2023-05-14T15:35:46.921Z,23.61
2023-05-14T15:38:14.152Z,23.28
2023-05-14T15:40:42.093Z,23.73
2023-05-14T15:43:09.713Z,24.01
2023-05-14T15:45:37.612Z,23.94
2023-05-14T15:48:05.119Z,23.42
2023-05-14T15:50:32.767Z,23.39
2023-05-14T15:53:00.964Z,23.54
2023-05-14T15:55:28.312Z,23.86
2023-05-14T15:57:56.058Z,24.02
2023-05-14T16:00:24.879Z,23.63
2023-05-14T16:02:53.045Z,23.82
2023-05-14T16:05:20.896Z,23.70
2023-05-14T16:07:48.824Z,23.86
2023-05-14T16:10:21.510Z,23.91
2023-05-14T16:12:49.128Z,23.60
2023-05-14T16:15:16.977Z,23.55
2023-05-14T16:17:44.730Z,23.52
2023-05-14T16:20:12.691Z,23.37
2023-05-14T16:22:40.555Z,22.89
2023-05-14T16:25:08.745Z,23.25
2023-05-14T16:27:36.639Z,23.30
2023-05-14T16:30:05.375Z,23.53
2023-05-14T16:32:33.729Z,23.82
2023-05-14T16:35:02.494Z,23.32
2023-05-14T16:37:31.587Z,23.29
2023-05-14T16:39:59.335Z,23.26
2023-05-14T16:42:26.691Z,22.48
2023-05-14T16:44:54.130Z,22.78
2023-05-14T16:47:21.460Z,23.21
2023-05-14T16:52:16.668Z,22.88
2023-05-14T16:54:43.904Z,22.79
2023-05-14T16:57:11.258Z,22.63
2023-05-14T16:59:38.518Z,22.44
2023-05-14T17:02:06.263Z,22.52
2023-05-14T17:04:38.678Z,23.01
2023-05-14T17:07:07.390Z,22.70
2023-05-14T17:09:35.587Z,21.97
2023-05-14T17:12:03.434Z,22.51
2023-05-14T17:14:31.588Z,22.55
2023-05-14T17:16:58.911Z,21.82
2023-05-14T17:19:26.095Z,21.81
2023-05-14T17:21:53.681Z,22.03
2023-05-14T17:24:21.558Z,22.37
2023-05-14T17:26:49.388Z,22.08
2023-05-14T17:29:17.766Z,22.58
2023-05-14T17:31:45.314Z,22.05
2023-05-14T17:34:12.770Z,21.99
2023-05-14T17:36:40.021Z,21.68
2023-05-14T17:39:07.642Z,21.02
2023-05-14T17:41:35.256Z,21.20
2023-05-14T17:44:02.511Z,21.20
2023-05-14T17:46:30.542Z,21.25
2023-05-14T17:48:58.521Z,20.86
2023-05-14T17:51:26.070Z,21.20
2023-05-14T17:53:53.536Z,21.37
2023-05-14T17:56:20.900Z,21.34
2023-05-14T17:58:49.910Z,21.19
2023-05-14T18:01:18.037Z,21.37
2023-05-14T18:03:46.126Z,21.02
2023-05-14T18:06:13.740Z,20.91
2023-05-14T18:08:42.697Z,20.91
2023-05-14T18:11:10.844Z,20.78
2023-05-14T18:13:38.399Z,20.64
2023-05-14T18:16:05.991Z,20.51
2023-05-14T18:18:33.441Z,20.28
2023-05-14T18:21:00.954Z,20.11
2023-05-14T18:23:28.885Z,19.80
2023-05-14T18:25:57.249Z,19.58
2023-05-14T18:28:25.342Z,19.57
2023-05-14T18:30:53.391Z,19.60
2023-05-14T18:33:21.238Z,19.53
2023-05-14T18:35:48.618Z,19.32
2023-05-14T18:38:17.865Z,19.12
2023-05-14T18:40:46.687Z,19.00
2023-05-14T18:43:15.066Z,18.93
2023-05-14T18:45:43.279Z,18.84
2023-05-14T18:48:10.777Z,18.74
2023-05-14T18:50:39.487Z,18.61
2023-05-14T18:53:07.614Z,18.74
2023-05-14T18:55:38.146Z,18.55
2023-05-14T18:58:05.646Z,18.44
2023-05-14T19:00:33.060Z,18.33
2023-05-14T19:03:00.826Z,18.30
2023-05-14T19:05:28.576Z,18.28
2023-05-14T19:08:02.095Z,17.80
2023-05-14T19:10:30.077Z,17.89
2023-05-14T19:12:57.694Z,17.75
2023-05-14T19:15:25.532Z,17.82
2023-05-14T19:17:54.166Z,17.83
2023-05-14T19:20:21.576Z,17.81
2023-05-14T19:22:49.343Z,17.76
2023-05-14T19:25:20.246Z,17.65
2023-05-14T19:27:51.082Z,17.61
2023-05-14T19:30:21.258Z,17.58
2023-05-14T19:32:48.587Z,17.67
2023-05-14T19:35:16.485Z,17.55
2023-05-14T19:37:44.096Z,16.97
2023-05-14T19:40:12.224Z,16.81
2023-05-14T19:42:39.777Z,16.96
2023-05-14T19:45:08.187Z,17.10
2023-05-14T19:47:35.461Z,17.16
2023-05-14T19:50:02.978Z,17.20
2023-05-14T19:52:31.934Z,17.01
2023-05-14T19:54:59.262Z,16.80
2023-05-14T19:57:26.760Z,16.94
2023-05-14T19:59:54.133Z,16.80
2023-05-14T20:02:22.265Z,16.73
2023-05-14T20:04:49.908Z,16.71
2023-05-14T20:07:17.867Z,16.53
2023-05-14T20:09:46.341Z,16.47
2023-05-14T20:12:14.538Z,16.49
2023-05-14T20:14:41.968Z,16.50
2023-05-14T20:17:09.829Z,16.22
2023-05-14T20:19:37.188Z,16.34
2023-05-14T20:22:04.695Z,15.94
2023-05-14T20:24:32.437Z,15.92
2023-05-14T20:27:00.253Z,15.88
2023-05-14T20:29:28.033Z,15.88
2023-05-14T20:31:55.780Z,15.78
2023-05-14T20:34:26.325Z,15.73
2023-05-14T20:36:53.565Z,15.68
2023-05-14T20:39:21.476Z,15.40
2023-05-14T20:41:48.999Z,14.98
2023-05-14T20:44:16.789Z,15.19
2023-05-14T20:46:45.211Z,15.52
2023-05-14T20:49:12.824Z,15.49
2023-05-14T20:51:40.580Z,15.60
2023-05-14T20:54:07.971Z,15.55
2023-05-14T20:56:38.162Z,15.47
2023-05-14T20:59:05.751Z,15.53
2023-05-14T21:01:33.150Z,15.60
2023-05-14T21:04:01.527Z,15.28
2023-05-14T21:06:29.658Z,15.08
2023-05-14T21:08:58.053Z,15.17
2023-05-14T21:11:26.197Z,15.50
2023-05-14T21:13:53.803Z,15.91
2023-05-14T21:16:21.168Z,16.02
2023-05-14T21:18:48.497Z,15.98
2023-05-14T21:21:15.785Z,16.04
2023-05-14T21:23:43.303Z,16.10
2023-05-14T21:26:11.484Z,15.83
2023-05-14T21:28:39.014Z,16.25
2023-05-14T21:31:06.351Z,16.32
2023-05-14T21:33:33.691Z,16.18
2023-05-14T21:36:01.776Z,16.14
2023-05-14T21:38:29.095Z,15.71
2023-05-14T21:40:56.379Z,15.94
2023-05-14T21:43:24.061Z,15.91
2023-05-14T21:45:51.386Z,15.81
2023-05-14T21:48:18.712Z,15.46
2023-05-14T21:50:46.036Z,15.60
2023-05-14T21:53:13.534Z,15.80
2023-05-14T21:55:41.676Z,15.75
2023-05-14T21:58:09.008Z,15.50
2023-05-14T22:00:36.179Z,15.70
2023-05-14T22:03:03.770Z,15.91
2023-05-14T22:05:31.582Z,15.77
2023-05-14T22:08:01.992Z,15.72
2023-05-14T22:10:31.390Z,15.77
2023-05-14T22:12:59.048Z,15.78
2023-05-14T22:15:26.664Z,15.86
2023-05-14T22:17:54.210Z,15.86
2023-05-14T22:20:22.428Z,15.91
2023-05-14T22:22:50.122Z,15.97
2023-05-14T22:25:21.392Z,15.83
2023-05-14T22:27:49.015Z,16.00
2023-05-14T22:30:16.722Z,16.30
2023-05-14T22:32:44.253Z,16.41
2023-05-14T22:35:11.677Z,16.29
2023-05-14T22:37:38.825Z,15.91
2023-05-14T22:40:09.217Z,15.56
2023-05-14T22:42:37.517Z,15.44
2023-05-14T22:45:05.397Z,15.48
2023-05-14T22:47:32.634Z,15.52
2023-05-14T22:50:00.188Z,15.32
2023-05-14T22:53:43.386Z,15.29
2023-05-14T22:57:26.093Z,14.94
2023-05-14T23:01:09.047Z,14.89
2023-05-14T23:04:51.853Z,14.82
2023-05-14T23:08:34.839Z,14.51
2023-05-14T23:11:02.994Z,14.46
2023-05-14T23:14:46.189Z,14.46
2023-05-14T23:17:14.090Z,14.56
2023-05-14T23:20:57.591Z,14.78
2023-05-14T23:24:40.710Z,14.76
2023-05-14T23:27:08.296Z,14.75
2023-05-14T23:30:51.006Z,14.29
2023-05-14T23:34:34.900Z,13.94
2023-05-14T23:37:02.749Z,13.53
2023-05-14T23:40:45.864Z,13.69
2023-05-14T23:44:28.655Z,14.25
2023-05-14T23:46:56.236Z,14.02
2023-05-14T23:50:03.709Z,13.40
2023-05-14T23:52:31.653Z,13.45
2023-05-14T23:54:59.148Z,13.39
2023-05-14T23:57:27.192Z,13.38
2023-05-14T23:59:54.500Z,13.65
